CYDB

Burwash Airport

Burwash, , Canada
METAR CYDB 161600Z 30003KT 15SM -SN FEW005 BKN012 M15/M17 A3024 RMK ST2ST5 SLP314
Observed Flight Rules
Nov-16 @ 16:00 UTC (26 minutes ago) Marginal Visual Flight Rules
Wind Visibility Clouds Conditions
300° at 3 knots 15 miles
  • Few at 500' AGL
  • Broken at 1,200' AGL
  • Light Snow
Temperatures Readings
Current -15°C / 5°F
Dewpoint -17°C / 1°F
Humidity 85%
Altimeter 30.24" Hg
Pressure 1031.4 hPa
Elevation 801
METAR CYDB 161600Z 30003KT 15SM -SN FEW005 BKN012 M15/M17 A3024 RMK ST2ST5 SLP314
Observed Flight Rules
Nov-16 @ 16:00 UTC
(26 minutes ago)
MVFR
Wind Visibility
300° at 3 knots 15 miles
Clouds
  • Few at 500' AGL
  • Broken at 1,200' AGL
Conditions
  • Light Snow
Temperature Dewpoint
-15°C / 5°F -17°C / 1°F
Humidity Altimeter Pressure
85% 30.24" Hg 1031.4 hPa